Scroll down
FLIGHT INFORMATION
Air New Zealand

ANZ23

At Arrival Gate

KSFO
 LSZH
DATE: 2020-11-17
GATE: G50
GATE DEPARTURE: 00:42
TAKEOFF: 00:53
DATE: 2020-11-17
GATE: G20
LANDING: 11:28
GATE ARRIVAL: 11:32
FLIGHT DATA
Crew: 
Speed: 
503 kts
Altitude: 
37,058 ft
Stage Length: 
5,062.8 nm
Block Time: 
10.8 hrs
Flight Time: 
10.6 hrs
Fuel Used: 
237,331 lb
Cleared Route: KSFO ORRCA BETBE ZORUN GALLI BIL MOT YWG YRL DUSMA MCKEE AVUTI 5850N 5840N 5730N 5620N RESNO NETKI SLANY STU NUMPO OKESI HOFIK BEDEK NIGIT VAPID MID BOGNA BENBO HAWKE XAMAB VEULE INPAX RESMI TEPRI POGZI FUZKA WERZU GELTA MELKO MANAG PILON TIRSO PEVIT BLM LSZH
TRACK DATA
50,000 ft 1,000 kts
AIRCRAFT INFO AND CUMULATIVE STATS
Aircraft Type: 
B744
Registration: 
SELCAL: 
JQEL
MSN/LN: 
24386 / 756
Operator: 
Total Flights: 
7
Total Block Time: 
61.9 hrs
Total Flight Time: 
60.2 hrs
Total Fuel Time: 
1,337,838 lb
DATALINK LOG | Newest first | Current as of: 2020-12-03 08:02:56
LABEL SEQUENCE CONTENT Dn/Up
QD305211:32 53.1▼ Dn
QC264911:28▼ Dn
2U4340LSZH 180820Z VRB02KT 0300 0200N R14/0700N R16/0600D R28/0600U R34/0450D FG VV001 03/03 Q1029 TEMPO 0600 VV002▲ Up
2S3429LSZH▼ Dn
2U5826LSZH 180650Z 16003KT 0300 0200N R14/0600N R16/1000U R28/1100N R34/0800D FG VV001 02/02 Q1029 TEMPO 0400▲ Up
2S3025LSZH▼ Dn
GA1522GATE G20▲ Up
GR1511LSZH 11:20 HI-VAL NO DIPL/VIP NO▼ Dn
2U3241LSZH 172250Z 32003KT 9999 2000N MIFG FEW001 02/02 Q1029 BECMG 2000 BCFG▲ Up
2S0418LSZH▼ Dn
QB254100:53▼ Dn
QA143100:42 290.5▼ Dn
A30735NO MATCHING FLIGHT DATA AVAILABLE FROM ANSP▲ Up
A74107CLEARANCE AVAIL WITHIN 0:25 OF EDT▲ Up
B34107KSFO LSZH ANZ23 ZK-NBS ▼ Dn
Q03500[LINK ACK]▲ Up
Q03500[LINK TEST]▼ Dn


AIRCRAFT HISTORY
FLIGHT DATE FLIGHT NO. ORIGIN DESTINATION CLEARED ROUTE BLOCK TIME FLIGHT TIME FUEL USED PILOT
2020-11-22ANZ25LSZH KSFO LSZH ZH580 ZH577 BREGO ZH554 ZH558 VEBIT DANZE LASUN LUMEL KUBOM TORPA REKLA RLP ROTSI KOTUN PODUK DIDOR NURMO DIPER VESAN RATUK SOVAT SANDY BIG GOXUL LINDY NORRY CPT KENET UGNUS LANON BADSI ABLIN IRKUM LIPGO SLG PIKIL 5720N 5830N 5840N 5750N HOIST YKL GL YAT YPL YWG WG MOT CONUK TWF FMG TROSE MOD LEEFF GROAN CEDES ARCHI MEHTA CEPIN RW28R12.4 hrs12 hrs283,325 lbMark Adeane
2020-11-17ANZ23KSFO LSZH KSFO ORRCA BETBE ZORUN GALLI BIL MOT YWG YRL DUSMA MCKEE AVUTI 5850N 5840N 5730N 5620N RESNO NETKI SLANY STU NUMPO OKESI HOFIK BEDEK NIGIT VAPID MID BOGNA BENBO HAWKE XAMAB VEULE INPAX RESMI TEPRI POGZI FUZKA WERZU GELTA MELKO MANAG PILON TIRSO PEVIT BLM LSZH10.8 hrs10.6 hrs237,331 lbMark Adeane
2020-11-17ANZ22NZCH KSFO NZCH CH OKTOM OLBAD NOKAK BOMTI VEMET PABGO ISPAK RG LOTRA BIBUP MEVEP NIKES TEDAG AGPOM UPNAR 08N40 18N35 27N30 MANEY MAFIC CINNY HUNTS PASIF PIRAT BRINY KSFO12.6 hrs12.3 hrs290,962 lbMark Adeane
2020-06-07ANZ9001OMDB NZCH OMDB DB570 DB586 DB587 DB588 DB589 DB571 DB572 ULADO RAPMO LOPUV ANVIX PEDUL KIPOK TARDI NOSMI BOTAM ELIVA MUSUK IVAKU GEPOT GIDAN TOLDA EMURU GOLBA GADMA LOTAV KADOL LEMAX MESAN NITIX OSIRI VASTU AKLON CIA GUTEG BIKOK CM KAT CL HAMBA HE EGODU EKASU BASEV ELATI MUTMI TATOD MALBI TANEM DECEM TIMET PD KADUN NONAX WENER PUGUT VIRUV CARTS LEC SAPED NEWMO PKS KADOM TESAT CAWLY PLUGA BOKED SULON VANDA BELEE AVOCA BISUP CH426 CHARR IDUBU RW0215.7 hrs15.3 hrs321,615 lbMark Adeane
2020-06-03ANZ9000LIRF OMDB LIRF RF601 RF603 SOSAK TORLI KONUT PEPIX UNIXO CRN ADREN TOMGI RUTOM LASKO KFN TRL EKTOS ALANI MIL NETIS PEXAN MADEX UVRIT ASTIS ADESO GILOS ETERU VANES RDS LAKAD EXELA EVENO BALMA CAK LATEB LOTAX BASEM ABBAS SULAF TAN MODIK RAPLU PUSTO SILBO LOVEK KODAV ILMAP SIDAD DESLU NANPI ALNIN IMDAT DURSI PEGET EGMIT LEVNA ORSAR GIBIB EMOTA TATLA VUTEB OMDB5.4 hrs5.1 hrs96,959 lbMark Adeane
2018-08-30ANZ1ESSA LIRF 3.4 hrs2.9 hrs64,967 lbMatthew Gales
2018-08-29ANZ66EGLL ESSA 2.1 hrs1.9 hrs42,678 lbMatthew Gales